createdAt,value
2022-12-31T00:00:00.747Z,8.50
2022-12-31T00:02:27.886Z,8.63
2022-12-31T00:04:54.755Z,8.10
2022-12-31T00:07:21.437Z,8.60
2022-12-31T00:09:48.157Z,8.02
2022-12-31T00:12:14.964Z,8.40
2022-12-31T00:14:41.772Z,6.85
2022-12-31T00:17:08.708Z,6.47
2022-12-31T00:19:35.478Z,5.00
2022-12-31T00:22:02.227Z,4.80
2022-12-31T00:24:31.161Z,4.93
2022-12-31T00:26:57.995Z,4.88
2022-12-31T00:29:24.780Z,4.72
2022-12-31T00:31:51.726Z,5.00
2022-12-31T00:34:18.449Z,4.88
2022-12-31T00:36:46.073Z,5.05
2022-12-31T00:39:13.145Z,5.07
2022-12-31T00:41:40.093Z,5.15
2022-12-31T00:44:06.822Z,5.00
2022-12-31T00:49:00.497Z,5.00
2022-12-31T00:51:27.656Z,5.18
2022-12-31T00:53:55.705Z,4.90
2022-12-31T00:56:24.557Z,5.13
2022-12-31T00:58:52.342Z,5.10
2022-12-31T01:01:26.354Z,5.00
2022-12-31T01:03:55.884Z,4.82
2022-12-31T01:06:22.835Z,4.70
2022-12-31T01:08:50.588Z,5.10
2022-12-31T01:11:22.526Z,5.07
2022-12-31T01:14:02.817Z,5.00
2022-12-31T01:16:34.958Z,5.30
2022-12-31T01:19:05.533Z,5.13
2022-12-31T01:21:33.275Z,5.55
2022-12-31T01:24:00.221Z,5.10
2022-12-31T01:26:27.780Z,5.07
2022-12-31T01:28:54.786Z,5.15
2022-12-31T01:31:23.027Z,5.10
2022-12-31T01:33:50.786Z,5.20
2022-12-31T01:36:26.336Z,10.75
2022-12-31T01:38:55.128Z,8.07
2022-12-31T01:41:27.977Z,16.55
2022-12-31T01:43:58.631Z,5.28
2022-12-31T01:46:51.736Z,7.60
2022-12-31T01:49:42.233Z,5.72
2022-12-31T01:54:41.859Z,5.55
2022-12-31T01:57:09.755Z,5.40
2022-12-31T01:59:37.045Z,5.43
2022-12-31T02:02:05.068Z,13.80
2022-12-31T02:04:32.000Z,12.80
2022-12-31T02:07:07.925Z,8.88
2022-12-31T02:09:38.352Z,7.38
2022-12-31T02:14:37.419Z,5.15
2022-12-31T02:17:41.237Z,4.88
2022-12-31T02:20:32.918Z,4.82
2022-12-31T02:23:27.452Z,5.13
2022-12-31T02:26:32.599Z,5.15
2022-12-31T02:29:40.452Z,4.75
2022-12-31T02:32:14.336Z,4.75
2022-12-31T02:34:54.396Z,5.05
2022-12-31T02:37:25.085Z,5.75
2022-12-31T02:39:52.501Z,4.80
2022-12-31T02:42:19.194Z,5.20
2022-12-31T02:44:46.074Z,5.28
2022-12-31T02:47:33.297Z,6.90
2022-12-31T02:50:18.521Z,5.30
2022-12-31T02:53:22.278Z,6.25
2022-12-31T02:56:04.006Z,5.63
2022-12-31T02:59:01.131Z,5.43
2022-12-31T03:01:55.741Z,9.07
2022-12-31T03:04:33.241Z,5.18
2022-12-31T03:07:02.837Z,5.13
2022-12-31T03:09:29.651Z,5.97
2022-12-31T03:12:14.920Z,5.18
2022-12-31T03:14:41.862Z,5.38
2022-12-31T03:17:08.662Z,5.13
2022-12-31T03:19:54.028Z,4.68
2022-12-31T03:22:30.327Z,4.68
2022-12-31T03:25:38.000Z,4.35
2022-12-31T03:28:08.307Z,4.57
2022-12-31T03:30:36.839Z,6.88
2022-12-31T03:33:04.819Z,5.22
2022-12-31T03:35:33.864Z,5.88
2022-12-31T03:38:00.721Z,8.00
2022-12-31T03:40:29.435Z,8.90
2022-12-31T03:42:56.519Z,5.93
2022-12-31T03:45:23.945Z,4.07
2022-12-31T03:47:50.659Z,7.80
2022-12-31T03:50:18.834Z,6.70
2022-12-31T03:52:45.979Z,4.93
2022-12-31T03:55:13.307Z,5.25
2022-12-31T03:57:40.241Z,6.95
2022-12-31T04:00:10.167Z,5.07
2022-12-31T04:02:37.334Z,6.90
2022-12-31T04:05:04.676Z,6.63
2022-12-31T04:07:31.880Z,9.43
2022-12-31T04:09:58.657Z,8.30
2022-12-31T04:12:25.469Z,8.77
2022-12-31T04:14:52.203Z,8.52
2022-12-31T04:17:18.892Z,7.53
2022-12-31T04:19:45.724Z,5.93
2022-12-31T04:22:12.555Z,6.22
2022-12-31T04:24:39.301Z,5.70
2022-12-31T04:27:07.958Z,5.93
2022-12-31T04:29:35.824Z,6.00
2022-12-31T04:32:03.373Z,5.22
2022-12-31T04:34:30.187Z,5.88
2022-12-31T04:36:56.931Z,5.55
2022-12-31T04:39:24.844Z,5.75
2022-12-31T04:41:51.807Z,5.82
2022-12-31T04:44:19.201Z,6.82
2022-12-31T04:46:46.047Z,6.75
2022-12-31T04:49:13.110Z,6.00
2022-12-31T04:51:40.109Z,5.93
2022-12-31T04:54:06.824Z,5.43
2022-12-31T04:56:36.736Z,5.80
2022-12-31T04:59:04.865Z,5.50
2022-12-31T05:01:32.916Z,5.53
2022-12-31T05:04:00.136Z,5.47
2022-12-31T05:06:26.869Z,5.90
2022-12-31T05:08:53.671Z,5.18
2022-12-31T05:11:20.404Z,5.20
2022-12-31T05:13:47.219Z,5.65
2022-12-31T05:16:14.240Z,5.57
2022-12-31T05:18:41.959Z,6.20
2022-12-31T05:21:08.745Z,6.30
2022-12-31T05:23:35.549Z,8.13
2022-12-31T05:26:02.501Z,5.70
2022-12-31T05:28:29.266Z,6.18
2022-12-31T05:30:56.239Z,5.80
2022-12-31T05:33:23.213Z,5.20
2022-12-31T05:35:50.552Z,5.28
2022-12-31T05:38:17.364Z,5.97
2022-12-31T05:40:44.776Z,5.50
2022-12-31T05:43:11.522Z,5.53
2022-12-31T05:45:38.360Z,5.75
2022-12-31T05:48:05.586Z,5.95
2022-12-31T05:50:32.422Z,6.10
2022-12-31T05:53:04.025Z,7.43
2022-12-31T05:55:30.839Z,7.32
2022-12-31T05:57:57.923Z,6.45
2022-12-31T06:00:24.560Z,5.90
2022-12-31T06:02:51.313Z,5.35
2022-12-31T06:05:22.628Z,5.85
2022-12-31T06:07:52.981Z,5.55
2022-12-31T06:10:19.690Z,5.40
2022-12-31T06:12:46.348Z,5.70
2022-12-31T06:15:13.115Z,5.22
2022-12-31T06:17:39.893Z,5.90
2022-12-31T06:20:12.510Z,7.25
2022-12-31T06:22:40.057Z,7.13
2022-12-31T06:25:07.195Z,7.93
2022-12-31T06:27:34.019Z,7.38
2022-12-31T06:30:00.831Z,7.28
2022-12-31T06:32:27.600Z,5.80
2022-12-31T06:34:54.328Z,5.40
2022-12-31T06:37:21.112Z,5.22
2022-12-31T06:39:47.887Z,4.85
2022-12-31T06:42:14.661Z,4.80
2022-12-31T06:44:41.459Z,5.43
2022-12-31T06:47:08.166Z,6.78
2022-12-31T06:49:34.923Z,6.65
2022-12-31T06:52:01.720Z,6.10
2022-12-31T06:54:28.443Z,6.07
2022-12-31T06:56:55.481Z,5.50
2022-12-31T06:59:31.179Z,4.90
2022-12-31T07:02:14.039Z,5.13
2022-12-31T07:05:08.809Z,4.93
2022-12-31T07:07:44.203Z,4.97
2022-12-31T07:10:36.751Z,5.30
2022-12-31T07:13:21.863Z,4.97
2022-12-31T07:16:08.933Z,5.40
2022-12-31T07:18:52.492Z,5.18
2022-12-31T07:21:30.666Z,5.55
2022-12-31T07:23:57.664Z,5.60
2022-12-31T07:26:42.970Z,5.78
2022-12-31T07:29:34.197Z,5.53
2022-12-31T07:32:56.700Z,5.70
2022-12-31T07:35:39.680Z,5.43
2022-12-31T07:38:24.283Z,5.80
2022-12-31T07:41:10.361Z,6.15
2022-12-31T07:44:03.919Z,6.10
2022-12-31T07:46:33.426Z,5.78
2022-12-31T07:49:00.616Z,6.80
2022-12-31T07:51:28.179Z,6.32
2022-12-31T07:53:54.974Z,6.70
2022-12-31T07:56:21.776Z,7.15
2022-12-31T07:59:07.352Z,7.10
2022-12-31T08:02:01.386Z,6.53
2022-12-31T08:05:01.720Z,6.70
2022-12-31T08:08:06.112Z,7.57
2022-12-31T08:11:06.525Z,6.72
2022-12-31T08:13:33.855Z,6.13
2022-12-31T08:16:02.598Z,5.80
2022-12-31T08:18:29.664Z,6.28
2022-12-31T08:21:37.806Z,6.22
2022-12-31T08:24:17.746Z,5.95
2022-12-31T08:26:59.584Z,6.05
2022-12-31T08:29:35.744Z,6.40
2022-12-31T08:32:23.998Z,6.80
2022-12-31T08:35:12.528Z,6.82
2022-12-31T08:37:47.977Z,6.90
2022-12-31T08:40:30.887Z,6.70
2022-12-31T08:43:26.308Z,6.43
2022-12-31T08:45:54.182Z,6.05
2022-12-31T08:48:40.424Z,6.50
2022-12-31T08:51:15.120Z,6.40
2022-12-31T08:53:42.331Z,6.07
2022-12-31T08:56:24.090Z,6.20
2022-12-31T08:59:21.792Z,6.20
2022-12-31T09:01:54.676Z,6.38
2022-12-31T09:04:43.887Z,6.18
2022-12-31T09:07:13.746Z,6.60
2022-12-31T09:10:00.465Z,6.70
2022-12-31T09:12:42.209Z,6.35
2022-12-31T09:15:25.195Z,6.20
2022-12-31T09:17:52.553Z,6.70
2022-12-31T09:20:41.829Z,6.50
2022-12-31T09:25:46.698Z,6.43
2022-12-31T09:28:30.724Z,6.45
2022-12-31T09:31:01.584Z,6.63
2022-12-31T09:33:40.545Z,6.30
2022-12-31T09:36:11.044Z,6.18
2022-12-31T09:41:35.710Z,6.53
2022-12-31T09:44:39.764Z,6.50
2022-12-31T09:47:34.587Z,6.15
2022-12-31T09:50:39.585Z,6.00
2022-12-31T09:53:41.743Z,6.38
2022-12-31T09:56:55.506Z,5.82
2022-12-31T09:59:31.186Z,6.40
2022-12-31T10:02:13.370Z,6.20
2022-12-31T10:04:40.743Z,5.97
2022-12-31T10:07:21.663Z,5.65
2022-12-31T10:09:48.475Z,5.85
2022-12-31T10:12:41.952Z,6.97
2022-12-31T10:15:46.044Z,5.63
2022-12-31T10:18:44.332Z,6.28
2022-12-31T10:21:29.946Z,5.88
2022-12-31T10:24:58.832Z,6.13
2022-12-31T10:27:44.902Z,5.70
2022-12-31T10:30:16.360Z,5.43
2022-12-31T10:32:45.821Z,6.10
2022-12-31T10:35:18.654Z,5.97
2022-12-31T10:38:24.418Z,5.90
2022-12-31T10:41:05.982Z,5.95
2022-12-31T10:44:15.539Z,5.60
2022-12-31T10:46:51.100Z,5.80
2022-12-31T10:49:29.792Z,5.40
2022-12-31T10:52:35.615Z,5.80
2022-12-31T10:55:42.044Z,5.90
2022-12-31T10:58:21.579Z,5.70
2022-12-31T11:00:57.951Z,5.70
2022-12-31T11:03:43.304Z,5.90
2022-12-31T11:06:36.306Z,5.60
2022-12-31T11:09:06.130Z,5.78
2022-12-31T11:11:52.592Z,5.70
2022-12-31T11:14:31.387Z,5.78
2022-12-31T11:17:06.927Z,5.95
2022-12-31T11:19:41.592Z,5.90
2022-12-31T11:22:14.407Z,5.85
2022-12-31T11:25:07.543Z,6.00
2022-12-31T11:27:49.616Z,6.18
2022-12-31T11:30:31.329Z,6.35
2022-12-31T11:33:01.389Z,6.53
2022-12-31T11:36:25.958Z,6.05
2022-12-31T11:39:30.819Z,5.93
2022-12-31T11:42:19.297Z,6.70
2022-12-31T11:44:55.326Z,6.35
2022-12-31T11:51:05.237Z,7.18
2022-12-31T11:54:01.332Z,7.10
2022-12-31T11:56:37.407Z,6.30
2022-12-31T11:59:18.934Z,6.95
2022-12-31T12:02:20.045Z,6.80
2022-12-31T12:04:49.141Z,7.03
2022-12-31T12:07:17.439Z,7.10
2022-12-31T12:09:45.479Z,7.22
2022-12-31T12:12:12.948Z,7.38
2022-12-31T12:14:42.656Z,7.07
2022-12-31T12:17:22.007Z,7.53
2022-12-31T12:19:55.435Z,8.40
2022-12-31T12:22:26.856Z,7.13
2022-12-31T12:25:07.491Z,7.20
2022-12-31T12:27:36.961Z,7.72
2022-12-31T12:30:26.839Z,7.70
2022-12-31T12:32:56.253Z,6.60
2022-12-31T12:35:34.936Z,7.57
2022-12-31T12:38:03.288Z,7.25
2022-12-31T12:40:34.215Z,7.18
2022-12-31T12:43:02.730Z,7.18
2022-12-31T12:45:42.102Z,7.30
2022-12-31T12:48:25.739Z,7.15
2022-12-31T12:50:52.705Z,7.35
2022-12-31T12:53:58.546Z,7.65
2022-12-31T12:57:03.113Z,7.20
2022-12-31T12:59:58.013Z,7.35
2022-12-31T13:02:55.944Z,6.97
2022-12-31T13:05:28.506Z,8.50
2022-12-31T13:08:16.915Z,6.95
2022-12-31T13:10:58.652Z,7.15
2022-12-31T13:13:41.694Z,7.60
2022-12-31T13:16:30.019Z,7.90
2022-12-31T13:19:26.141Z,7.80
2022-12-31T13:22:16.761Z,8.18
2022-12-31T13:24:58.587Z,7.68
2022-12-31T13:27:32.504Z,7.95
2022-12-31T13:30:02.816Z,7.53
2022-12-31T13:32:50.286Z,7.68
2022-12-31T13:35:24.580Z,8.10
2022-12-31T13:38:03.373Z,7.60
2022-12-31T13:40:46.175Z,8.10
2022-12-31T13:43:32.994Z,8.90
2022-12-31T13:46:22.531Z,7.75
2022-12-31T13:49:05.456Z,8.80
2022-12-31T13:51:58.895Z,8.60
2022-12-31T13:54:51.455Z,8.50
2022-12-31T13:57:42.030Z,9.07
2022-12-31T14:02:59.765Z,8.23
2022-12-31T14:05:30.883Z,8.63
2022-12-31T14:08:00.984Z,9.20
2022-12-31T14:10:59.845Z,8.57
2022-12-31T14:13:51.231Z,8.90
2022-12-31T14:16:33.523Z,9.95
2022-12-31T14:19:31.611Z,11.23
2022-12-31T14:22:29.125Z,9.68
2022-12-31T14:24:59.157Z,9.30
2022-12-31T14:27:34.793Z,9.20
2022-12-31T14:30:34.022Z,9.43
2022-12-31T14:33:12.937Z,10.20
2022-12-31T14:36:18.098Z,10.30
2022-12-31T14:39:12.927Z,11.38
2022-12-31T14:42:00.933Z,9.65
2022-12-31T14:44:57.060Z,10.10
2022-12-31T14:47:59.089Z,9.40
2022-12-31T14:50:28.352Z,9.50
2022-12-31T14:52:59.586Z,10.05
2022-12-31T14:55:34.448Z,10.05
2022-12-31T15:00:56.577Z,9.77
2022-12-31T15:03:37.919Z,10.40
2022-12-31T15:06:23.621Z,9.48
2022-12-31T15:09:15.969Z,9.93
2022-12-31T15:12:10.877Z,9.50
2022-12-31T15:14:50.251Z,9.27
2022-12-31T15:17:28.943Z,9.68
2022-12-31T15:20:17.525Z,8.68
2022-12-31T15:22:47.545Z,9.02
2022-12-31T15:25:22.727Z,8.88
2022-12-31T15:27:50.400Z,8.70
2022-12-31T15:30:29.149Z,9.52
2022-12-31T15:32:59.035Z,9.07
2022-12-31T15:35:32.427Z,9.38
2022-12-31T15:38:02.127Z,9.15
2022-12-31T15:40:29.825Z,8.65
2022-12-31T15:43:09.856Z,9.00
2022-12-31T15:45:42.199Z,9.18
2022-12-31T15:48:19.722Z,9.18
2022-12-31T15:50:49.698Z,9.43
2022-12-31T15:53:28.315Z,8.43
2022-12-31T15:55:58.229Z,8.68
2022-12-31T15:58:27.888Z,8.68
2022-12-31T16:01:01.108Z,9.52
2022-12-31T16:03:30.935Z,8.65
2022-12-31T16:06:01.928Z,8.73
2022-12-31T16:08:31.880Z,8.55
2022-12-31T16:10:59.564Z,8.75
2022-12-31T16:13:29.277Z,8.88
2022-12-31T16:16:06.237Z,8.63
2022-12-31T16:18:41.015Z,8.80
2022-12-31T16:21:26.683Z,8.77
2022-12-31T16:23:56.358Z,8.23
2022-12-31T16:26:32.767Z,8.63
2022-12-31T16:29:00.219Z,8.38
2022-12-31T16:31:29.015Z,8.98
2022-12-31T16:34:14.124Z,8.73
2022-12-31T16:36:41.215Z,8.70
2022-12-31T16:39:38.739Z,8.98
2022-12-31T16:42:14.991Z,8.88
2022-12-31T16:44:42.144Z,8.57
2022-12-31T16:47:15.254Z,9.50
2022-12-31T16:49:42.904Z,9.18
2022-12-31T16:52:52.086Z,8.75
2022-12-31T16:55:23.496Z,8.75
2022-12-31T16:57:55.687Z,9.18
2022-12-31T17:00:25.402Z,9.68
2022-12-31T17:03:14.163Z,8.82
2022-12-31T17:05:56.989Z,8.80
2022-12-31T17:08:28.054Z,8.77
2022-12-31T17:10:56.478Z,8.65
2022-12-31T17:13:29.572Z,8.60
2022-12-31T17:15:59.027Z,8.52
2022-12-31T17:18:30.345Z,7.78
2022-12-31T17:21:08.557Z,7.88
2022-12-31T17:23:37.696Z,7.53
2022-12-31T17:26:12.276Z,7.30
2022-12-31T17:28:43.935Z,7.18
2022-12-31T17:31:33.449Z,9.23
2022-12-31T17:34:12.571Z,7.18
2022-12-31T17:36:41.810Z,6.55
2022-12-31T17:39:20.025Z,6.55
2022-12-31T17:41:48.281Z,6.57
2022-12-31T17:44:25.717Z,6.72
2022-12-31T17:46:53.209Z,6.00
2022-12-31T17:49:27.251Z,6.00
2022-12-31T17:51:54.166Z,5.97
2022-12-31T17:54:21.026Z,6.20
2022-12-31T17:56:48.165Z,6.47
2022-12-31T17:59:21.514Z,6.65
2022-12-31T18:01:49.032Z,6.60
2022-12-31T18:04:18.331Z,6.18
2022-12-31T18:06:46.138Z,6.30
2022-12-31T18:09:12.966Z,5.93
2022-12-31T18:11:40.927Z,5.82
2022-12-31T18:14:07.919Z,5.82
2022-12-31T18:16:34.794Z,5.90
2022-12-31T18:19:01.684Z,6.53
2022-12-31T18:21:32.740Z,5.78
2022-12-31T18:26:27.966Z,5.85
2022-12-31T18:28:55.008Z,5.30
2022-12-31T18:31:28.253Z,5.30
2022-12-31T18:33:57.446Z,5.07
2022-12-31T18:36:25.461Z,4.80
2022-12-31T18:38:53.128Z,4.68
2022-12-31T18:41:30.309Z,4.65
2022-12-31T18:43:57.115Z,4.38
2022-12-31T18:46:24.921Z,5.40
2022-12-31T18:48:52.084Z,4.97
2022-12-31T18:51:31.424Z,5.00
2022-12-31T18:54:02.623Z,5.00
2022-12-31T18:56:29.743Z,6.00
2022-12-31T18:58:56.768Z,6.05
2022-12-31T19:01:37.750Z,5.03
2022-12-31T19:04:13.146Z,5.03
2022-12-31T19:06:40.128Z,5.13
2022-12-31T19:09:23.729Z,5.35
2022-12-31T19:11:53.733Z,5.13
2022-12-31T19:14:24.238Z,5.18
2022-12-31T19:16:52.177Z,5.07
2022-12-31T19:19:19.200Z,5.43
2022-12-31T19:21:46.337Z,5.40
2022-12-31T19:24:27.291Z,5.25
2022-12-31T19:26:54.834Z,5.47
2022-12-31T19:29:24.762Z,5.45
2022-12-31T19:31:52.182Z,5.35
2022-12-31T19:34:19.113Z,5.30
2022-12-31T19:36:46.145Z,5.63
2022-12-31T19:39:18.915Z,5.40
2022-12-31T19:41:47.525Z,5.32
2022-12-31T19:44:18.194Z,5.30
2022-12-31T19:46:46.404Z,6.93
2022-12-31T19:49:14.368Z,5.78
2022-12-31T19:51:41.690Z,5.03
2022-12-31T19:54:10.080Z,5.38
2022-12-31T19:56:37.633Z,5.15
2022-12-31T19:59:09.821Z,4.63
2022-12-31T20:01:36.861Z,4.97
2022-12-31T20:04:04.075Z,5.65
2022-12-31T20:06:30.941Z,5.05
2022-12-31T20:08:57.744Z,5.75
2022-12-31T20:11:25.150Z,5.03
2022-12-31T20:13:53.618Z,5.40
2022-12-31T20:16:23.250Z,6.18
2022-12-31T20:18:50.763Z,5.90
2022-12-31T20:21:22.948Z,9.07
2022-12-31T20:23:51.421Z,5.57
2022-12-31T20:26:18.534Z,6.00
2022-12-31T20:28:45.721Z,5.97
2022-12-31T20:31:18.737Z,5.97
2022-12-31T20:33:45.944Z,6.55
2022-12-31T20:36:14.549Z,5.78
2022-12-31T20:38:41.941Z,5.68
2022-12-31T20:41:17.265Z,5.93
2022-12-31T20:43:45.549Z,6.05
2022-12-31T20:46:21.911Z,5.95
2022-12-31T20:48:50.684Z,6.05
2022-12-31T20:51:22.129Z,5.97
2022-12-31T20:53:55.423Z,6.15
2022-12-31T20:56:23.338Z,6.15
2022-12-31T20:58:50.071Z,6.30
2022-12-31T21:01:17.854Z,6.60
2022-12-31T21:06:34.662Z,6.45
2022-12-31T21:09:02.915Z,6.30
2022-12-31T21:11:48.269Z,6.05
2022-12-31T21:14:15.458Z,6.07
2022-12-31T21:16:42.439Z,6.07
2022-12-31T21:19:09.952Z,6.43
2022-12-31T21:21:37.553Z,6.45
2022-12-31T21:24:04.755Z,6.38
2022-12-31T21:26:31.580Z,8.30
2022-12-31T21:28:58.695Z,6.57
2022-12-31T21:31:25.464Z,6.50
2022-12-31T21:33:52.126Z,6.93
2022-12-31T21:36:19.087Z,7.93
2022-12-31T21:38:46.026Z,7.10
2022-12-31T21:41:35.103Z,7.28
2022-12-31T21:44:03.261Z,7.50
2022-12-31T21:46:30.296Z,7.78
2022-12-31T21:48:59.274Z,7.57
2022-12-31T21:51:26.796Z,9.15
2022-12-31T21:53:53.990Z,7.93
2022-12-31T21:56:21.497Z,7.50
2022-12-31T21:59:15.780Z,7.22
2022-12-31T22:02:01.724Z,6.75
2022-12-31T22:05:00.932Z,7.40
2022-12-31T22:07:15.827Z,7.00
2022-12-31T22:09:42.639Z,6.72
2022-12-31T22:12:09.525Z,7.07
2022-12-31T22:14:36.305Z,6.97
2022-12-31T22:17:03.351Z,10.05
2022-12-31T22:19:30.205Z,7.78
2022-12-31T22:21:57.082Z,7.68
2022-12-31T22:24:24.073Z,8.48
2022-12-31T22:26:52.124Z,8.40
2022-12-31T22:29:19.711Z,7.70
2022-12-31T22:31:46.464Z,7.72
2022-12-31T22:34:13.358Z,6.93
2022-12-31T22:36:40.216Z,6.97
2022-12-31T22:39:07.071Z,6.78
2022-12-31T22:41:34.956Z,6.50
2022-12-31T22:44:04.669Z,8.13
2022-12-31T22:46:32.810Z,6.90
2022-12-31T22:49:01.174Z,6.25
2022-12-31T22:51:56.793Z,6.25
2022-12-31T22:54:16.181Z,6.40
2022-12-31T22:56:42.990Z,6.07
2022-12-31T22:59:09.848Z,6.53
2022-12-31T23:01:37.446Z,7.03
2022-12-31T23:04:04.740Z,6.15
2022-12-31T23:06:32.020Z,6.72
2022-12-31T23:09:17.692Z,5.90
2022-12-31T23:11:44.445Z,5.78
2022-12-31T23:14:35.689Z,5.50
2022-12-31T23:17:29.998Z,6.30
2022-12-31T23:20:18.840Z,5.65
2022-12-31T23:23:05.312Z,5.55
2022-12-31T23:25:33.809Z,5.82
2022-12-31T23:28:00.782Z,6.00
2022-12-31T23:30:27.739Z,7.22
2022-12-31T23:32:54.584Z,6.20
2022-12-31T23:35:21.862Z,5.93
2022-12-31T23:37:48.724Z,5.90
2022-12-31T23:40:20.979Z,5.53
2022-12-31T23:42:49.459Z,5.88
2022-12-31T23:45:16.572Z,6.70
2022-12-31T23:47:43.302Z,5.78
2022-12-31T23:50:10.306Z,5.15
2022-12-31T23:52:37.041Z,5.80
2022-12-31T23:55:04.061Z,5.72
2022-12-31T23:57:30.822Z,5.65
2022-12-31T23:59:57.562Z,5.35
